Time;durP1;ratioP1;P1;durP2;ratioP2;P2;SDS_P1;SDS_P2;PMS_P1;PMS_P2;Temp;Humidity;BMP_temperature;BMP_pressure;BME280_temperature;BME280_humidity;BME280_pressure;Samples;Min_cycle;Max_cycle;Signal;HPM_P1;HPM_P2
2023/07/19 00:02:09;;;;;;;1.60;0.52;;;19.00;75.30;;;;;;5055245;28;20025;-85
2023/07/19 00:04:35;;;;;;;1.48;0.50;;;18.90;75.50;;;;;;5054246;28;20090;-85
2023/07/19 00:07:01;;;;;;;2.95;0.65;;;18.90;75.80;;;;;;5055168;28;20091;-84
2023/07/19 00:09:27;;;;;;;3.25;0.63;;;18.90;76.20;;;;;;5054000;28;20079;-84
2023/07/19 00:11:52;;;;;;;5.25;0.60;;;18.90;76.40;;;;;;5054039;28;20108;-85
2023/07/19 00:14:18;;;;;;;4.47;0.75;;;18.90;76.60;;;;;;5053650;28;20072;-85
2023/07/19 00:16:44;;;;;;;3.63;0.70;;;18.90;76.90;;;;;;5054080;28;20375;-86
2023/07/19 00:19:09;;;;;;;3.80;0.63;;;19.00;77.20;;;;;;5054431;28;20032;-85
2023/07/19 00:21:35;;;;;;;2.45;0.90;;;18.90;77.50;;;;;;5054609;28;20033;-85
2023/07/19 00:24:01;;;;;;;3.35;0.88;;;18.90;77.80;;;;;;5056145;28;20107;-85
2023/07/19 00:26:26;;;;;;;2.63;0.88;;;18.90;77.90;;;;;;5054017;28;20048;-84
2023/07/19 00:28:52;;;;;;;3.58;0.70;;;18.90;78.10;;;;;;5055163;28;20037;-84
2023/07/19 00:31:18;;;;;;;1.63;0.60;;;18.90;78.30;;;;;;5055027;28;20511;-84
2023/07/19 00:33:43;;;;;;;4.65;0.65;;;18.90;78.50;;;;;;5054889;28;20067;-85
2023/07/19 00:36:09;;;;;;;3.03;0.80;;;18.90;78.80;;;;;;5055076;28;20043;-84
2023/07/19 00:38:35;;;;;;;2.85;0.80;;;18.90;78.90;;;;;;5054012;28;20037;-84
2023/07/19 00:41:00;;;;;;;2.72;0.70;;;18.90;79.70;;;;;;5036770;28;20064;-85
2023/07/19 00:43:26;;;;;;;4.18;0.98;;;18.90;79.40;;;;;;5053587;28;20029;-84
2023/07/19 00:45:56;;;;;;;2.42;0.68;;;18.80;79.50;;;;;;5053279;28;20501;-85
2023/07/19 00:48:22;;;;;;;2.50;0.90;;;18.80;79.80;;;;;;5053300;28;20123;-85
2023/07/19 00:50:50;;;;;;;5.82;0.75;;;18.80;80.00;;;;;;5053276;28;20155;-85
2023/07/19 00:53:17;;;;;;;2.53;0.85;;;18.80;80.20;;;;;;5054625;28;20025;-85
2023/07/19 00:55:48;;;;;;;3.92;1.10;;;18.80;80.30;;;;;;5054492;28;20048;-85
2023/07/19 00:58:14;;;;;;;2.85;0.85;;;18.80;80.20;;;;;;5054324;28;20014;-85
2023/07/19 01:00:40;;;;;;;3.60;0.70;;;18.70;80.30;;;;;;5036436;28;20036;-84
2023/07/19 01:03:05;;;;;;;6.57;0.80;;;18.70;80.40;;;;;;5054737;28;20033;-84
2023/07/19 01:05:31;;;;;;;5.72;1.00;;;18.60;80.70;;;;;;5054297;28;20029;-85
2023/07/19 01:07:58;;;;;;;2.00;0.68;;;18.60;80.70;;;;;;5054237;28;20036;-85
2023/07/19 01:10:25;;;;;;;2.08;0.70;;;18.50;80.90;;;;;;5053998;28;20112;-85
2023/07/19 01:13:08;;;;;;;2.83;0.90;;;18.50;81.40;;;;;;5053942;28;20103;-85
2023/07/19 01:15:38;;;;;;;2.50;1.00;;;18.40;81.30;;;;;;5054069;28;20559;-85
2023/07/19 01:18:04;;;;;;;2.47;0.77;;;18.30;81.40;;;;;;5053971;28;20424;-84
2023/07/19 01:20:30;;;;;;;3.45;1.13;;;18.30;81.50;;;;;;5053903;28;20033;-85
2023/07/19 01:22:56;;;;;;;2.28;0.93;;;18.20;81.70;;;;;;5054047;28;20033;-85
2023/07/19 01:25:22;;;;;;;4.63;1.00;;;18.20;81.90;;;;;;5046882;28;20026;-84
2023/07/19 01:27:48;;;;;;;5.35;1.15;;;18.10;82.20;;;;;;5053581;28;20060;-84
2023/07/19 01:30:14;;;;;;;5.28;1.13;;;18.10;82.60;;;;;;5053556;28;20029;-85
2023/07/19 01:32:40;;;;;;;3.72;1.05;;;18.10;82.50;;;;;;5052380;28;20039;-85
2023/07/19 01:35:06;;;;;;;2.63;0.82;;;18.00;82.60;;;;;;5050603;28;20057;-84
2023/07/19 01:37:32;;;;;;;3.15;0.88;;;18.00;83.20;;;;;;5051767;28;20029;-85
2023/07/19 01:39:57;;;;;;;3.85;1.27;;;18.00;83.40;;;;;;5053467;28;20033;-85
2023/07/19 01:42:23;;;;;;;4.65;1.02;;;17.90;83.40;;;;;;5052083;28;20492;-85
2023/07/19 01:44:49;;;;;;;4.72;0.77;;;17.80;83.70;;;;;;5052350;28;20392;-85
2023/07/19 01:47:14;;;;;;;5.28;1.23;;;17.80;83.80;;;;;;5053474;28;20033;-84
2023/07/19 01:49:40;;;;;;;4.93;1.10;;;17.80;84.10;;;;;;5050827;28;20052;-85
2023/07/19 01:52:06;;;;;;;4.75;0.90;;;17.80;85.10;;;;;;5046255;28;20040;-84
2023/07/19 01:54:32;;;;;;;3.50;1.10;;;17.80;84.50;;;;;;5015769;28;20534;-85
2023/07/19 01:56:59;;;;;;;3.42;1.67;;;17.70;84.60;;;;;;5031718;28;20033;-84
2023/07/19 01:59:24;;;;;;;3.25;1.20;;;17.70;84.90;;;;;;5042345;28;20028;-85
2023/07/19 02:01:51;;;;;;;3.30;1.33;;;17.70;85.10;;;;;;5048523;28;20029;-85
2023/07/19 02:04:16;;;;;;;4.15;1.00;;;17.70;85.20;;;;;;5032886;28;20037;-84
2023/07/19 02:06:42;;;;;;;4.30;1.33;;;17.70;85.30;;;;;;5032003;28;20112;-85
2023/07/19 02:09:07;;;;;;;3.80;1.10;;;17.70;85.50;;;;;;5033194;28;20029;-85
2023/07/19 02:11:34;;;;;;;5.20;1.60;;;17.70;85.60;;;;;;5033264;28;20359;-84
2023/07/19 02:14:00;;;;;;;3.30;1.23;;;17.60;85.70;;;;;;5033213;28;20037;-85
2023/07/19 02:16:25;;;;;;;2.50;0.90;;;17.60;85.90;;;;;;5015771;28;20087;-85
2023/07/19 02:18:51;;;;;;;4.35;1.08;;;17.60;85.90;;;;;;5015688;28;20034;-84
2023/07/19 02:21:17;;;;;;;4.18;1.30;;;17.60;86.20;;;;;;5033090;28;20500;-84
2023/07/19 02:23:43;;;;;;;7.45;1.35;;;17.60;86.30;;;;;;5031923;28;20091;-85
2023/07/19 02:26:09;;;;;;;4.90;1.40;;;17.60;86.50;;;;;;5031786;28;20033;-84
2023/07/19 02:28:35;;;;;;;4.18;1.60;;;17.60;86.70;;;;;;5015536;28;20498;-84
2023/07/19 02:31:02;;;;;;;6.30;1.65;;;17.50;86.90;;;;;;5031892;28;20037;-85
2023/07/19 02:33:28;;;;;;;4.97;1.73;;;17.60;87.00;;;;;;5032937;28;20042;-85
2023/07/19 02:35:54;;;;;;;5.60;1.85;;;17.60;87.20;;;;;;5031795;28;20183;-85
2023/07/19 02:38:21;;;;;;;3.97;1.40;;;17.60;87.30;;;;;;5015390;28;20037;-84
2023/07/19 02:40:47;;;;;;;3.75;1.73;;;17.60;87.40;;;;;;5031902;28;20029;-85
2023/07/19 02:43:12;;;;;;;5.22;1.85;;;17.50;87.40;;;;;;5015400;28;20041;-85
2023/07/19 02:45:38;;;;;;;3.40;1.67;;;17.50;87.50;;;;;;5032939;28;20092;-85
2023/07/19 02:48:04;;;;;;;4.97;1.83;;;17.50;87.70;;;;;;5032901;28;20030;-85
2023/07/19 02:50:29;;;;;;;3.42;1.50;;;17.40;87.80;;;;;;5033200;28;20032;-84
2023/07/19 02:52:55;;;;;;;4.05;1.75;;;17.40;87.80;;;;;;5031602;28;20099;-84
2023/07/19 02:55:20;;;;;;;4.70;2.00;;;17.40;88.00;;;;;;5032938;28;20025;-85
2023/07/19 02:57:46;;;;;;;4.15;1.42;;;17.40;88.30;;;;;;5032852;28;20389;-84
2023/07/19 03:00:12;;;;;;;3.75;1.77;;;17.40;88.50;;;;;;5032887;28;20037;-84
2023/07/19 03:02:37;;;;;;;6.28;2.22;;;17.30;88.70;;;;;;5031668;28;20037;-85
2023/07/19 03:05:04;;;;;;;5.50;2.08;;;17.30;88.80;;;;;;5035729;28;20030;-85
2023/07/19 03:07:31;;;;;;;5.47;1.88;;;17.30;89.00;;;;;;5035216;28;20041;-85
2023/07/19 03:09:56;;;;;;;5.43;2.40;;;17.40;89.20;;;;;;5036562;28;20021;-84
2023/07/19 03:12:22;;;;;;;6.13;3.03;;;17.30;89.40;;;;;;5036429;28;20029;-84
2023/07/19 03:14:47;;;;;;;5.25;2.83;;;17.30;89.60;;;;;;5034946;28;20073;-85
2023/07/19 03:17:13;;;;;;;6.85;3.05;;;17.30;89.50;;;;;;5018486;28;20040;-84
2023/07/19 03:19:38;;;;;;;6.10;3.00;;;17.20;89.50;;;;;;5036302;28;20029;-85
2023/07/19 03:22:04;;;;;;;5.43;2.40;;;17.30;89.80;;;;;;5036263;28;20060;-85
2023/07/19 03:24:30;;;;;;;7.03;2.67;;;17.20;89.70;;;;;;5036010;28;20059;-85
2023/07/19 03:26:55;;;;;;;6.20;2.85;;;17.20;89.80;;;;;;5034793;28;20042;-85
2023/07/19 03:29:21;;;;;;;6.97;3.10;;;17.20;89.90;;;;;;5034972;28;20033;-85
2023/07/19 03:31:47;;;;;;;5.60;2.97;;;17.20;90.00;;;;;;5034690;28;20033;-85
2023/07/19 03:34:14;;;;;;;8.52;3.03;;;17.20;90.00;;;;;;5034776;28;20034;-84
2023/07/19 03:36:39;;;;;;;6.07;2.92;;;17.20;90.00;;;;;;5034594;28;20467;-85
2023/07/19 03:39:05;;;;;;;6.95;2.95;;;17.20;90.10;;;;;;5035855;28;20159;-85
2023/07/19 03:41:31;;;;;;;6.10;3.00;;;17.20;90.10;;;;;;5034552;28;20496;-85
2023/07/19 03:43:57;;;;;;;5.13;2.88;;;17.20;90.20;;;;;;5034538;28;20037;-85
2023/07/19 03:46:22;;;;;;;6.07;2.70;;;17.10;90.20;;;;;;5034516;28;20029;-84
2023/07/19 03:48:48;;;;;;;5.32;2.92;;;17.20;90.30;;;;;;5034659;28;20113;-84
2023/07/19 03:51:14;;;;;;;6.50;3.35;;;17.10;90.30;;;;;;5034997;28;20389;-85
2023/07/19 03:53:39;;;;;;;5.47;2.83;;;17.10;90.30;;;;;;5035760;28;20033;-84
2023/07/19 03:56:05;;;;;;;8.23;3.13;;;17.10;90.30;;;;;;5039194;28;20052;-84
2023/07/19 03:58:31;;;;;;;6.15;3.15;;;17.20;90.30;;;;;;5054047;28;20040;-84
2023/07/19 04:00:58;;;;;;;5.80;3.33;;;17.10;90.40;;;;;;5054052;28;20083;-84
2023/07/19 04:03:25;;;;;;;5.25;2.63;;;17.20;90.40;;;;;;5054168;28;20043;-84
2023/07/19 04:05:51;;;;;;;4.40;2.90;;;17.20;90.50;;;;;;5055143;28;20024;-84
2023/07/19 04:08:17;;;;;;;7.07;2.85;;;17.20;90.50;;;;;;5054698;28;20040;-85
2023/07/19 04:10:43;;;;;;;5.03;2.47;;;17.20;90.60;;;;;;5054093;28;20033;-84
2023/07/19 04:13:13;;;;;;;6.60;2.58;;;17.20;90.60;;;;;;5055214;28;20033;-84
2023/07/19 04:15:39;;;;;;;7.03;2.65;;;17.20;90.60;;;;;;5054818;28;20075;-85
2023/07/19 04:18:05;;;;;;;5.60;2.10;;;17.20;90.60;;;;;;5055099;28;20150;-84
2023/07/19 04:20:30;;;;;;;10.20;2.58;;;17.30;90.80;;;;;;5037910;28;20063;-84
2023/07/19 04:22:56;;;;;;;4.03;2.22;;;17.30;90.90;;;;;;5054292;28;20052;-85
2023/07/19 04:25:24;;;;;;;5.53;2.38;;;17.30;91.00;;;;;;5055330;28;20371;-85
2023/07/19 04:27:53;;;;;;;6.18;2.33;;;17.30;91.10;;;;;;5054760;28;20121;-85
2023/07/19 04:30:19;;;;;;;5.80;2.80;;;17.40;91.10;;;;;;5054797;28;20020;-84
2023/07/19 04:32:44;;;;;;;5.72;2.78;;;17.40;91.10;;;;;;5054919;28;20032;-85
2023/07/19 04:35:10;;;;;;;3.95;2.60;;;17.40;91.10;;;;;;5036833;28;20031;-85
2023/07/19 04:37:38;;;;;;;5.93;2.70;;;17.40;91.10;;;;;;5036838;28;20111;-85
2023/07/19 04:40:06;;;;;;;4.45;2.90;;;17.50;91.20;;;;;;5054649;28;20025;-85
2023/07/19 04:42:31;;;;;;;6.05;2.38;;;17.50;91.50;;;;;;5036779;28;20079;-84
2023/07/19 04:44:57;;;;;;;6.28;2.63;;;17.50;91.30;;;;;;5054517;28;20041;-85
2023/07/19 04:47:22;;;;;;;6.50;3.00;;;17.60;91.30;;;;;;5054419;28;20119;-85
2023/07/19 04:49:48;;;;;;;6.43;2.50;;;17.60;91.30;;;;;;5054555;28;20044;-85
2023/07/19 04:52:14;;;;;;;3.85;2.15;;;17.60;91.30;;;;;;5053110;28;20025;-85
2023/07/19 04:54:40;;;;;;;6.13;2.13;;;17.60;91.30;;;;;;5053650;28;20023;-84
2023/07/19 04:57:06;;;;;;;4.85;2.63;;;17.70;91.30;;;;;;5053206;28;20029;-84
2023/07/19 04:59:32;;;;;;;6.10;2.55;;;17.70;91.30;;;;;;5052404;28;20115;-82
2023/07/19 05:01:58;;;;;;;6.95;2.50;;;17.70;91.30;;;;;;5052898;28;20044;-83
2023/07/19 05:04:23;;;;;;;6.97;2.45;;;17.80;91.30;;;;;;5053992;28;20124;-84
2023/07/19 05:06:52;;;;;;;6.68;2.75;;;17.80;91.20;;;;;;5036255;28;20037;-84
2023/07/19 05:09:17;;;;;;;5.85;2.47;;;17.80;91.10;;;;;;5053799;28;20543;-83
2023/07/19 05:11:43;;;;;;;6.38;2.63;;;17.80;91.10;;;;;;5054036;28;20025;-84
2023/07/19 05:14:09;;;;;;;5.30;1.98;;;17.80;91.10;;;;;;5036055;28;20052;-84
2023/07/19 05:16:35;;;;;;;5.28;2.20;;;17.80;91.00;;;;;;5054385;28;20037;-84
2023/07/19 05:19:01;;;;;;;6.63;2.47;;;17.80;90.90;;;;;;5054128;28;20048;-84
2023/07/19 05:21:27;;;;;;;4.32;2.58;;;17.90;90.90;;;;;;5053903;28;20029;-84
2023/07/19 05:23:53;;;;;;;5.20;2.60;;;17.90;90.80;;;;;;5019787;28;20040;-85
2023/07/19 05:26:19;;;;;;;4.50;2.15;;;18.00;90.80;;;;;;5035191;28;20493;-84
2023/07/19 05:28:45;;;;;;;5.70;2.50;;;18.00;90.80;;;;;;5053597;28;20029;-85
2023/07/19 05:31:11;;;;;;;4.57;2.05;;;17.90;90.70;;;;;;5053731;28;20074;-84
2023/07/19 05:33:37;;;;;;;4.65;1.80;;;18.00;90.70;;;;;;5035765;28;20535;-84
2023/07/19 05:36:03;;;;;;;4.90;2.13;;;18.00;90.70;;;;;;5053784;28;20036;-84
2023/07/19 05:38:29;;;;;;;7.10;2.92;;;18.00;90.60;;;;;;5058032;28;20120;-84
2023/07/19 05:41:02;;;;;;;5.97;2.00;;;18.00;90.50;;;;;;5060942;28;20073;-83
2023/07/19 05:43:29;;;;;;;5.80;2.78;;;18.10;90.50;;;;;;5052087;28;20064;-84
2023/07/19 05:46:03;;;;;;;8.65;3.30;;;18.10;90.50;;;;;;5051597;28;20028;-84
2023/07/19 05:48:28;;;;;;;6.65;2.58;;;18.10;90.40;;;;;;5058819;28;20024;-84
2023/07/19 05:50:54;;;;;;;4.82;2.53;;;18.20;90.40;;;;;;5073813;28;20028;-84
2023/07/19 05:53:19;;;;;;;7.35;3.05;;;18.20;90.30;;;;;;5063427;28;20143;-84
2023/07/19 05:55:45;;;;;;;7.50;3.63;;;18.20;90.20;;;;;;5052356;28;20033;-84
2023/07/19 05:58:11;;;;;;;10.38;3.25;;;18.20;90.20;;;;;;5041702;28;20381;-84
2023/07/19 06:00:36;;;;;;;6.78;3.13;;;18.20;90.10;;;;;;5055490;28;20387;-83
2023/07/19 06:03:02;;;;;;;8.02;3.55;;;18.20;90.10;;;;;;5072053;28;20035;-83
2023/07/19 06:05:28;;;;;;;6.97;3.30;;;18.20;90.10;;;;;;5072111;28;20035;-83
2023/07/19 06:07:53;;;;;;;8.07;3.25;;;18.20;90.00;;;;;;5050389;28;20394;-84
2023/07/19 06:10:19;;;;;;;10.05;3.63;;;18.30;90.00;;;;;;5038850;28;20021;-84
2023/07/19 06:12:45;;;;;;;8.48;3.47;;;18.30;90.00;;;;;;5038005;28;20496;-83
2023/07/19 06:15:11;;;;;;;8.05;3.38;;;18.30;89.90;;;;;;5033116;28;20502;-83
2023/07/19 06:17:37;;;;;;;5.45;2.97;;;18.40;89.80;;;;;;5033170;28;20025;-83
2023/07/19 06:20:07;;;;;;;8.35;3.15;;;18.40;89.80;;;;;;5033103;28;20100;-85
2023/07/19 06:22:33;;;;;;;7.35;3.40;;;18.40;89.60;;;;;;5032173;28;20029;-83
2023/07/19 06:24:59;;;;;;;8.30;2.75;;;18.50;89.70;;;;;;5031860;28;20056;-84
2023/07/19 06:27:24;;;;;;;7.35;3.10;;;18.50;89.60;;;;;;5032516;28;20042;-84
2023/07/19 06:29:53;;;;;;;6.35;2.80;;;18.60;89.50;;;;;;5031798;28;20037;-84
2023/07/19 06:32:19;;;;;;;6.88;2.67;;;18.70;89.40;;;;;;5033136;28;20117;-84
2023/07/19 06:34:44;;;;;;;7.70;3.25;;;18.70;89.30;;;;;;5031975;28;20060;-83
2023/07/19 06:37:10;;;;;;;6.50;2.38;;;18.80;89.20;;;;;;5031952;28;20432;-84
2023/07/19 06:39:35;;;;;;;8.30;2.95;;;18.80;89.00;;;;;;5019271;28;20025;-84
2023/07/19 06:42:01;;;;;;;7.00;2.95;;;18.80;88.80;;;;;;5035991;28;20053;-84
2023/07/19 06:44:27;;;;;;;5.78;2.53;;;18.80;88.70;;;;;;5019221;28;20420;-84
2023/07/19 06:46:52;;;;;;;6.20;2.45;;;18.90;88.70;;;;;;5035708;28;20386;-85
2023/07/19 06:49:21;;;;;;;8.40;2.67;;;19.00;89.30;;;;;;5020264;28;20029;-85
2023/07/19 06:51:48;;;;;;;5.63;2.22;;;19.00;88.40;;;;;;5037321;28;20033;-84
2023/07/19 06:54:13;;;;;;;9.00;3.00;;;19.20;88.30;;;;;;5037203;28;20021;-83
2023/07/19 06:56:39;;;;;;;9.75;2.58;;;19.20;88.70;;;;;;5035840;28;20029;-84
2023/07/19 06:59:05;;;;;;;6.15;2.42;;;19.30;87.80;;;;;;5035394;28;20030;-84
2023/07/19 07:01:30;;;;;;;8.52;2.83;;;19.40;87.60;;;;;;5035461;28;20037;-85
2023/07/19 07:03:56;;;;;;;10.75;3.50;;;19.50;87.40;;;;;;5019041;28;20030;-85
2023/07/19 07:06:22;;;;;;;8.45;3.13;;;19.50;87.10;;;;;;5018748;28;20029;-85
2023/07/19 07:08:47;;;;;;;8.77;2.72;;;19.60;86.60;;;;;;5036373;28;20481;-85
2023/07/19 07:11:13;;;;;;;7.40;2.28;;;19.70;86.30;;;;;;5035152;28;20029;-84
2023/07/19 07:13:39;;;;;;;6.35;2.63;;;19.70;86.10;;;;;;5035003;28;20116;-84
2023/07/19 07:16:04;;;;;;;7.80;2.65;;;19.80;86.00;;;;;;5035198;28;20085;-85
2023/07/19 07:18:30;;;;;;;7.75;2.78;;;19.80;85.80;;;;;;5035106;28;20034;-85
2023/07/19 07:20:56;;;;;;;7.90;2.65;;;19.90;85.80;;;;;;5018693;28;20021;-85
2023/07/19 07:23:21;;;;;;;9.32;2.95;;;19.90;85.60;;;;;;5018565;28;20030;-85
2023/07/19 07:25:56;;;;;;;5.53;2.75;;;20.00;85.60;;;;;;5018382;28;20083;-83
2023/07/19 07:28:22;;;;;;;9.75;2.70;;;20.10;85.30;;;;;;5036377;28;20385;-84
2023/07/19 07:30:48;;;;;;;6.80;2.55;;;20.10;85.00;;;;;;5018620;28;20421;-83
2023/07/19 07:33:13;;;;;;;8.20;3.47;;;20.10;84.60;;;;;;5035964;28;20037;-84
2023/07/19 07:35:39;;;;;;;9.95;2.40;;;20.10;84.40;;;;;;5018125;28;20040;-84
2023/07/19 07:38:05;;;;;;;6.53;2.53;;;20.00;84.40;;;;;;5036233;28;20053;-84
2023/07/19 07:40:30;;;;;;;8.25;2.30;;;20.00;84.50;;;;;;5053082;28;20037;-84
2023/07/19 07:42:56;;;;;;;8.32;3.00;;;20.00;84.40;;;;;;5050749;28;20043;-84
2023/07/19 07:45:22;;;;;;;6.05;2.20;;;20.10;84.00;;;;;;5034653;28;20022;-84
2023/07/19 07:47:47;;;;;;;7.47;2.08;;;20.00;83.40;;;;;;5035393;28;20041;-84
2023/07/19 07:50:14;;;;;;;8.30;2.67;;;20.00;82.50;;;;;;5034931;28;20029;-84
2023/07/19 07:52:39;;;;;;;5.95;2.20;;;20.00;82.50;;;;;;5035337;28;20029;-84
2023/07/19 07:55:06;;;;;;;8.45;2.75;;;20.00;82.40;;;;;;5018066;28;20132;-83
2023/07/19 07:57:37;;;;;;;10.18;2.40;;;20.00;81.90;;;;;;5034432;28;20041;-84
2023/07/19 08:00:10;;;;;;;6.55;2.20;;;20.00;81.90;;;;;;5036064;28;20087;-83
2023/07/19 08:02:36;;;;;;;6.68;1.77;;;20.10;81.80;;;;;;5034534;28;20037;-83
2023/07/19 08:05:03;;;;;;;7.88;2.58;;;20.10;81.40;;;;;;5036143;28;20036;-84
2023/07/19 08:07:29;;;;;;;9.40;2.35;;;20.10;81.00;;;;;;5034196;28;20108;-84
2023/07/19 08:09:55;;;;;;;11.20;2.58;;;20.10;81.00;;;;;;5036160;28;20117;-83
2023/07/19 08:12:21;;;;;;;8.45;2.33;;;20.10;81.10;;;;;;5035621;28;20033;-81
2023/07/19 08:14:46;;;;;;;9.75;2.75;;;20.20;81.10;;;;;;5034247;28;20048;-85
2023/07/19 08:17:12;;;;;;;10.18;2.42;;;20.20;81.20;;;;;;5001289;28;20034;-82
2023/07/19 08:19:38;;;;;;;7.28;2.17;;;20.20;81.20;;;;;;5017414;28;20033;-85
2023/07/19 08:22:05;;;;;;;9.13;1.85;;;20.30;81.20;;;;;;5018165;28;20439;-83
2023/07/19 08:24:31;;;;;;;6.13;1.83;;;20.40;81.00;;;;;;5071865;28;20031;-86
2023/07/19 08:26:57;;;;;;;7.93;1.40;;;20.50;80.70;;;;;;5073773;28;20397;-87
2023/07/19 08:29:23;;;;;;;6.45;1.75;;;20.50;80.50;;;;;;5074115;28;20036;-87
2023/07/19 08:31:49;;;;;;;10.18;2.22;;;20.60;80.20;;;;;;5074194;28;20445;-86
2023/07/19 08:34:15;;;;;;;8.73;2.42;;;20.70;79.80;;;;;;5073820;28;20017;-86
2023/07/19 08:36:40;;;;;;;6.28;2.05;;;20.70;79.60;;;;;;5049223;28;20052;-85
2023/07/19 08:39:06;;;;;;;6.18;1.60;;;20.80;78.90;;;;;;5054394;28;20108;-86
2023/07/19 08:41:34;;;;;;;4.68;1.98;;;20.90;78.90;;;;;;5037790;28;20733;-85
2023/07/19 08:44:00;;;;;;;4.95;1.73;;;21.10;79.20;;;;;;5055994;28;20056;-86
2023/07/19 08:46:25;;;;;;;4.15;1.80;;;21.30;79.00;;;;;;5055516;28;20060;-88
2023/07/19 08:48:51;;;;;;;5.85;1.80;;;21.40;78.50;;;;;;5055815;28;20021;-87
2023/07/19 08:51:18;;;;;;;5.22;1.95;;;21.60;78.20;;;;;;5053658;28;20424;-87
2023/07/19 08:53:44;;;;;;;7.57;2.47;;;21.60;77.10;;;;;;5054366;28;20055;-85
2023/07/19 08:56:11;;;;;;;6.65;1.60;;;21.70;76.70;;;;;;5040749;28;20075;-86
2023/07/19 08:58:39;;;;;;;4.05;1.55;;;21.70;76.60;;;;;;5073416;28;20025;-87
2023/07/19 09:01:08;;;;;;;5.80;1.63;;;21.70;76.50;;;;;;5074622;28;20024;-86
2023/07/19 09:03:34;;;;;;;5.80;1.80;;;21.70;76.20;;;;;;5074280;28;20500;-86
2023/07/19 09:06:01;;;;;;;4.97;1.80;;;21.80;76.30;;;;;;5074308;28;20037;-86
2023/07/19 09:08:40;;;;;;;5.60;1.33;;;21.90;76.30;;;;;;5038314;28;20485;-85
2023/07/19 09:11:07;;;;;;;6.47;1.88;;;21.90;76.40;;;;;;5053528;28;20373;-86
2023/07/19 09:13:37;;;;;;;3.92;1.55;;;22.00;76.00;;;;;;5053980;28;20063;-85
2023/07/19 09:16:04;;;;;;;5.30;1.48;;;22.00;76.10;;;;;;5072192;28;20036;-86
2023/07/19 09:18:36;;;;;;;6.15;1.60;;;22.10;76.60;;;;;;5056586;28;20016;-85
2023/07/19 09:21:04;;;;;;;5.90;1.98;;;22.10;75.60;;;;;;5075384;28;20032;-85
2023/07/19 09:23:35;;;;;;;5.90;1.63;;;22.20;75.50;;;;;;5074849;28;20166;-87
2023/07/19 09:26:03;;;;;;;6.65;2.20;;;22.30;75.30;;;;;;5055510;28;20404;-87
2023/07/19 09:28:29;;;;;;;7.03;2.05;;;22.40;74.90;;;;;;5052741;28;20029;-86
2023/07/19 09:30:59;;;;;;;8.35;1.88;;;22.40;74.40;;;;;;5052479;28;20052;-86
2023/07/19 09:33:28;;;;;;;4.13;1.52;;;22.50;74.30;;;;;;5074399;28;20028;-86
2023/07/19 09:35:55;;;;;;;4.53;1.30;;;22.50;73.80;;;;;;5074215;28;20460;-87
2023/07/19 09:38:25;;;;;;;4.63;1.50;;;22.50;73.60;;;;;;5074542;28;20121;-88
2023/07/19 09:40:52;;;;;;;5.78;1.00;;;22.30;72.70;;;;;;5059095;28;20025;-86
2023/07/19 09:43:17;;;;;;;5.07;1.38;;;22.30;72.20;;;;;;5054940;28;20118;-88
2023/07/19 09:45:47;;;;;;;5.13;1.50;;;22.20;71.30;;;;;;5068374;28;20032;-86
2023/07/19 09:48:17;;;;;;;6.18;1.42;;;22.20;70.70;;;;;;5074121;28;20013;-87
2023/07/19 09:50:43;;;;;;;3.78;1.00;;;22.20;71.20;;;;;;5074369;28;20029;-86
2023/07/19 09:53:13;;;;;;;5.28;1.65;;;22.40;71.10;;;;;;5074183;28;20024;-85
2023/07/19 09:55:40;;;;;;;6.72;1.02;;;22.40;70.60;;;;;;5063024;28;20489;-86
2023/07/19 09:58:11;;;;;;;5.88;1.50;;;22.50;70.70;;;;;;5053890;28;20021;-86
2023/07/19 10:00:38;;;;;;;4.85;1.15;;;22.70;69.40;;;;;;5053862;28;20507;-87
2023/07/19 10:03:07;;;;;;;6.38;1.20;;;22.70;68.90;;;;;;5054366;28;20162;-85
2023/07/19 10:05:33;;;;;;;6.93;1.50;;;22.80;68.80;;;;;;5053001;28;20017;-86
2023/07/19 10:08:04;;;;;;;4.22;0.80;;;23.00;68.80;;;;;;5052876;28;20041;-86
2023/07/19 10:10:41;;;;;;;4.03;1.00;;;23.30;68.80;;;;;;5065338;28;20520;-85
2023/07/19 10:13:07;;;;;;;3.45;1.13;;;23.50;68.20;;;;;;5060545;28;20135;-87
2023/07/19 10:15:36;;;;;;;4.97;1.10;;;23.50;66.60;;;;;;5063565;28;20055;-86
2023/07/19 10:18:09;;;;;;;3.67;1.08;;;23.60;66.00;;;;;;5079559;28;20082;-87
2023/07/19 10:20:35;;;;;;;4.18;1.20;;;23.70;65.80;;;;;;5055683;28;20036;-87
2023/07/19 10:23:06;;;;;;;3.15;1.05;;;23.80;64.70;;;;;;5043337;28;20060;-87
2023/07/19 10:25:33;;;;;;;7.47;1.00;;;23.80;65.10;;;;;;5039433;28;20029;-89
2023/07/19 10:28:10;;;;;;;5.65;1.35;;;23.80;64.70;;;;;;5039121;28;20033;-84
2023/07/19 10:30:45;;;;;;;5.13;1.33;;;23.80;64.80;;;;;;5038761;28;20456;-85
2023/07/19 10:33:15;;;;;;;7.78;1.55;;;23.90;65.10;;;;;;5038695;28;20025;-86
2023/07/19 10:35:41;;;;;;;7.35;1.60;;;23.90;65.30;;;;;;5040014;28;20022;-86
2023/07/19 10:38:17;;;;;;;5.25;1.13;;;24.10;65.50;;;;;;5038748;28;20025;-87
2023/07/19 10:40:46;;;;;;;3.33;1.00;;;24.30;65.70;;;;;;5038527;28;20022;-87
2023/07/19 10:43:12;;;;;;;2.83;0.90;;;24.30;66.30;;;;;;5038660;28;20108;-87
2023/07/19 10:45:38;;;;;;;3.38;0.80;;;24.30;66.70;;;;;;5039415;28;20059;-85
2023/07/19 10:48:04;;;;;;;3.90;1.02;;;24.10;66.80;;;;;;5039197;28;20385;-83
2023/07/19 10:50:30;;;;;;;2.47;0.90;;;24.10;67.30;;;;;;5039259;28;20358;-83
2023/07/19 10:52:55;;;;;;;3.33;0.80;;;24.10;67.60;;;;;;5039249;28;20034;-86
2023/07/19 10:55:21;;;;;;;3.22;0.90;;;24.10;67.90;;;;;;5040703;28;20030;-85
2023/07/19 10:57:47;;;;;;;3.67;1.00;;;24.20;68.30;;;;;;5039049;28;20033;-85
2023/07/19 11:00:13;;;;;;;5.28;1.10;;;24.30;68.50;;;;;;5039290;28;20026;-85
2023/07/19 11:02:43;;;;;;;4.50;0.98;;;24.40;68.50;;;;;;5039319;28;20393;-85
2023/07/19 11:05:09;;;;;;;3.33;0.88;;;24.50;68.40;;;;;;5040170;28;20504;-85
2023/07/19 11:07:35;;;;;;;3.25;1.02;;;24.50;68.20;;;;;;5039532;28;20536;-84
2023/07/19 11:10:04;;;;;;;3.72;0.93;;;24.50;68.10;;;;;;5073631;28;20028;-86
2023/07/19 11:12:31;;;;;;;5.95;1.15;;;24.50;68.00;;;;;;5079142;28;20565;-88
2023/07/19 11:15:00;;;;;;;3.65;1.27;;;24.50;67.90;;;;;;5082805;28;20037;-85
2023/07/19 11:17:27;;;;;;;3.83;0.80;;;24.50;67.90;;;;;;5071024;28;20470;-83
2023/07/19 11:19:53;;;;;;;4.60;1.02;;;24.60;67.80;;;;;;5032374;28;20024;-84
2023/07/19 11:22:24;;;;;;;2.45;0.80;;;24.60;67.60;;;;;;5039893;28;20124;-87
2023/07/19 11:24:52;;;;;;;2.65;0.68;;;24.70;67.30;;;;;;5051557;28;20106;-85
2023/07/19 11:27:19;;;;;;;3.17;0.88;;;24.80;66.90;;;;;;5039971;28;20021;-83
2023/07/19 11:29:50;;;;;;;4.25;0.93;;;25.00;66.60;;;;;;5036973;28;20040;-84
2023/07/19 11:32:20;;;;;;;4.90;0.90;;;25.20;66.00;;;;;;5036165;28;20025;-79
2023/07/19 11:34:59;;;;;;;2.38;0.90;;;25.50;65.30;;;;;;5018222;28;20120;-80
2023/07/19 11:37:37;;;;;;;4.22;0.90;;;25.60;65.00;;;;;;5035771;28;20036;-80
2023/07/19 11:40:07;;;;;;;4.57;0.85;;;25.70;64.50;;;;;;5050055;28;20033;-80
2023/07/19 11:42:52;;;;;;;6.07;0.90;;;25.80;64.10;;;;;;5074452;28;20102;-77
2023/07/19 11:45:20;;;;;;;4.13;0.90;;;25.70;63.90;;;;;;5057163;28;20405;-77
2023/07/19 11:47:50;;;;;;;3.00;0.95;;;25.60;64.30;;;;;;5055484;28;20025;-77
2023/07/19 11:50:16;;;;;;;5.88;1.10;;;25.40;64.70;;;;;;5072638;28;20021;-77
2023/07/19 11:52:47;;;;;;;4.15;1.13;;;25.30;65.20;;;;;;5057174;28;20366;-78
2023/07/19 11:55:16;;;;;;;4.13;1.00;;;25.20;65.60;;;;;;5052128;28;20029;-79
2023/07/19 11:57:43;;;;;;;3.92;1.02;;;25.20;66.40;;;;;;5054500;28;20029;-77
2023/07/19 12:00:10;;;;;;;2.42;0.82;;;25.10;65.80;;;;;;5053906;28;20052;-78
2023/07/19 12:02:37;;;;;;;2.35;0.75;;;25.20;66.10;;;;;;5052414;28;20021;-78
2023/07/19 12:05:04;;;;;;;3.90;1.10;;;25.30;66.20;;;;;;5052178;28;20410;-79
2023/07/19 12:07:33;;;;;;;2.85;0.73;;;25.30;66.10;;;;;;5054263;28;20056;-78
2023/07/19 12:10:03;;;;;;;4.47;0.88;;;25.30;65.90;;;;;;5037191;28;20036;-78
2023/07/19 12:12:28;;;;;;;3.58;0.88;;;25.20;65.80;;;;;;5054282;28;20029;-77
2023/07/19 12:14:54;;;;;;;4.25;0.98;;;25.10;65.80;;;;;;5053980;28;20497;-78
2023/07/19 12:17:20;;;;;;;4.30;1.08;;;24.90;65.80;;;;;;5055222;28;20040;-77
2023/07/19 12:19:45;;;;;;;3.72;0.90;;;24.80;66.40;;;;;;5053931;28;20044;-78
2023/07/19 12:22:11;;;;;;;3.08;0.90;;;24.60;66.90;;;;;;5054078;28;20031;-78
2023/07/19 12:24:36;;;;;;;4.90;1.20;;;24.50;67.40;;;;;;5054083;28;20039;-79
2023/07/19 12:27:02;;;;;;;4.82;0.90;;;24.40;67.90;;;;;;5053919;28;20037;-78
2023/07/19 12:29:29;;;;;;;4.00;0.60;;;24.30;68.30;;;;;;5053595;28;20040;-78
2023/07/19 12:31:54;;;;;;;4.75;1.10;;;24.30;68.60;;;;;;5037261;28;20029;-78
2023/07/19 12:34:20;;;;;;;4.70;0.88;;;24.40;69.10;;;;;;5054999;28;20029;-79
2023/07/19 12:36:50;;;;;;;3.80;1.00;;;24.50;69.60;;;;;;5053191;28;20374;-79
2023/07/19 12:39:18;;;;;;;3.17;0.80;;;24.60;69.40;;;;;;5054643;28;20087;-79
2023/07/19 12:41:44;;;;;;;3.28;0.95;;;24.80;69.30;;;;;;5037072;28;20496;-79
2023/07/19 12:44:10;;;;;;;5.03;1.00;;;24.90;69.00;;;;;;5054572;28;20025;-79